Karratha Aerodrome, Australia
Current Conditions -  °F | °C
As of 10:30 AM on Monday 24 Nov 2014 (Local Time) from YPPD Reporting Station
Clear Clear  
Wind Chill: 100°   Ceiling: Unl
Heat Index: 105°   Visibility: 6mi
Dew Point: 66°   Wind: 7mph
Humidity: 33%   Direction: 90°E
Pressure: 29.77"   Gusts: NA
Location:  20.72°S, 116.77°E
Report Text: YPPD 240230Z 09006KT CAVOK 38/19 Q1008
Loading
Personal Weather Stations






























Interactive Weather Map New forecast layout! Learn more

10-Day Weather Forecast

Advertisements
Track Severe Weather on mobile